Time;durP1;ratioP1;P1;durP2;ratioP2;P2;SDS_P1;SDS_P2;PMS_P1;PMS_P2;Temp;Humidity;BMP_temperature;BMP_pressure;BME280_temperature;BME280_humidity;BME280_pressure;Samples;Min_cycle;Max_cycle;Signal;HPM_P1;HPM_P2
2024/04/09 00:00:01;;;;;;;14.23;1.73;;;10.20;96.80;;;;;;6553864;27;20010;-80
2024/04/09 00:03:02;;;;;;;14.52;2.20;;;10.20;95.70;;;;;;6589730;27;20141;-79
2024/04/09 00:06:14;;;;;;;10.40;2.05;;;10.20;93.50;;;;;;6591136;27;20011;-80
2024/04/09 00:09:20;;;;;;;12.75;2.03;;;10.20;77.80;;;;;;6547684;27;20022;-78
2024/04/09 00:12:23;;;;;;;12.35;1.80;;;10.10;88.80;;;;;;6562882;27;20017;-79
2024/04/09 00:15:24;;;;;;;13.82;2.78;;;10.00;86.80;;;;;;6554981;27;20004;-80
2024/04/09 00:18:26;;;;;;;9.73;2.00;;;10.10;91.30;;;;;;6590925;27;20341;-81
2024/04/09 00:21:28;;;;;;;19.52;2.47;;;10.10;90.70;;;;;;6590385;26;20104;-79
2024/04/09 00:24:32;;;;;;;9.30;1.90;;;10.10;82.20;;;;;;6561449;26;20005;-81
2024/04/09 00:27:34;;;;;;;15.73;2.20;;;10.10;86.80;;;;;;6591023;27;20441;-79
2024/04/09 00:30:36;;;;;;;15.93;2.20;;;10.10;83.50;;;;;;6583336;27;20009;-81
2024/04/09 00:33:38;;;;;;;13.93;2.00;;;10.00;66.20;;;;;;6590796;27;20013;-79
2024/04/09 00:36:40;;;;;;;16.70;2.22;;;10.00;70.60;;;;;;6572461;27;20350;-80
2024/04/09 00:39:43;;;;;;;14.90;2.20;;;10.00;53.40;;;;;;6561457;27;20005;-81
2024/04/09 00:42:49;;;;;;;15.57;2.35;;;10.00;42.40;;;;;;6590235;27;20020;-80
2024/04/09 00:45:51;;;;;;;13.77;1.95;;;10.00;65.60;;;;;;6521930;27;20598;-82
2024/04/09 00:48:53;;;;;;;17.55;2.50;;;10.00;42.00;;;;;;6590537;27;20005;-81
2024/04/09 00:51:55;;;;;;;8.65;1.67;;;10.00;49.90;;;;;;6587295;27;20006;-80
2024/04/09 00:54:57;;;;;;;12.63;2.28;;;9.90;51.70;;;;;;6590651;27;20038;-81
2024/04/09 00:58:00;;;;;;;14.30;2.17;;;9.90;34.40;;;;;;6590976;26;20495;-80
2024/04/09 01:01:03;;;;;;;11.73;1.75;;;9.80;43.20;;;;;;6554225;27;20381;-81
2024/04/09 01:04:06;;;;;;;11.27;2.00;;;10.20;61.10;;;;;;6591093;27;20005;-79
2024/04/09 01:07:07;;;;;;;13.95;1.90;;;9.90;63.60;;;;;;6590218;26;20021;-80
2024/04/09 01:10:10;;;;;;;9.82;2.10;;;9.90;50.20;;;;;;6560305;27;20075;-82
2024/04/09 01:13:12;;;;;;;11.85;1.55;;;9.90;51.70;;;;;;6572937;26;20009;-80
2024/04/09 01:16:13;;;;;;;10.38;1.70;;;10.00;61.20;;;;;;6553158;27;20005;-81
2024/04/09 01:19:15;;;;;;;11.98;1.83;;;9.80;45.60;;;;;;6547822;27;20014;-80
2024/04/09 01:22:17;;;;;;;12.77;1.88;;;9.80;49.50;;;;;;6588814;27;19998;-81
2024/04/09 01:25:20;;;;;;;12.45;1.98;;;9.80;59.30;;;;;;6589718;27;20006;-80
2024/04/09 01:28:23;;;;;;;10.25;1.80;;;9.70;55.00;;;;;;6589434;27;20068;-81
2024/04/09 01:31:25;;;;;;;7.97;1.70;;;9.70;54.60;;;;;;6577570;27;20006;-79
2024/04/09 01:34:27;;;;;;;9.63;1.90;;;9.70;64.90;;;;;;6547773;27;20009;-79
2024/04/09 01:37:29;;;;;;;14.88;1.80;;;9.60;66.20;;;;;;6589127;27;20009;-83
2024/04/09 01:40:31;;;;;;;9.82;2.08;;;9.50;74.90;;;;;;6615445;26;20012;-81
2024/04/09 01:43:32;;;;;;;17.27;2.05;;;9.40;82.00;;;;;;6572975;27;20017;-79
2024/04/09 01:46:34;;;;;;;11.88;1.30;;;9.40;85.00;;;;;;6589532;27;20002;-80
2024/04/09 01:49:36;;;;;;;8.73;1.58;;;9.40;90.20;;;;;;6589871;26;20013;-79
2024/04/09 01:52:40;;;;;;;17.35;1.75;;;9.30;95.20;;;;;;6589011;27;20348;-82
2024/04/09 01:55:42;;;;;;;14.80;1.60;;;9.20;99.60;;;;;;6589231;27;20037;-80
2024/04/09 01:58:44;;;;;;;10.32;1.60;;;9.20;99.90;;;;;;6582007;27;20322;-79
2024/04/09 02:01:45;;;;;;;12.80;1.70;;;9.20;99.90;;;;;;6586440;27;20002;-80
2024/04/09 02:04:48;;;;;;;12.43;1.92;;;9.10;99.90;;;;;;6588816;27;20017;-80
2024/04/09 02:07:50;;;;;;;10.45;1.73;;;9.00;99.90;;;;;;6586325;26;20038;-81
2024/04/09 02:10:52;;;;;;;8.90;1.40;;;9.00;99.90;;;;;;6586166;26;20076;-80
2024/04/09 02:13:53;;;;;;;15.55;2.47;;;9.00;99.90;;;;;;6568212;26;20016;-79
2024/04/09 02:16:55;;;;;;;12.38;1.73;;;9.10;99.90;;;;;;6553309;27;20025;-81
2024/04/09 02:19:57;;;;;;;10.10;1.35;;;9.10;99.90;;;;;;6558266;27;20002;-80
2024/04/09 02:22:59;;;;;;;9.10;1.50;;;9.10;99.90;;;;;;6574362;27;20013;-80
2024/04/09 02:26:00;;;;;;;13.48;2.90;;;9.10;99.90;;;;;;6546397;27;20079;-80
2024/04/09 02:29:02;;;;;;;10.52;1.85;;;9.00;99.90;;;;;;6551223;27;20044;-81
2024/04/09 02:32:05;;;;;;;10.45;1.67;;;8.90;99.90;;;;;;6588704;27;20010;-82
2024/04/09 02:35:10;;;;;;;9.82;1.35;;;8.80;99.90;;;;;;6560552;27;20037;-81
2024/04/09 02:38:12;;;;;;;7.78;1.30;;;8.90;99.90;;;;;;6588629;27;19998;-83
2024/04/09 02:41:16;;;;;;;9.10;1.27;;;8.90;99.90;;;;;;6585703;27;20014;-80
2024/04/09 02:44:18;;;;;;;13.55;1.92;;;9.10;99.90;;;;;;6567859;26;20085;-81
2024/04/09 02:47:20;;;;;;;9.50;1.60;;;9.20;99.90;;;;;;6588070;27;20061;-82
2024/04/09 02:50:22;;;;;;;9.93;1.30;;;9.30;99.90;;;;;;6558494;27;20817;-80
2024/04/09 02:53:24;;;;;;;8.15;1.13;;;9.30;99.90;;;;;;6544731;27;20046;-80
2024/04/09 02:56:26;;;;;;;7.47;1.20;;;9.30;99.90;;;;;;6585499;27;20009;-81
2024/04/09 02:59:28;;;;;;;9.00;1.00;;;9.30;99.90;;;;;;6552008;27;20020;-79
2024/04/09 03:02:30;;;;;;;7.38;1.20;;;9.10;99.90;;;;;;6558475;27;20333;-80
